sensor_id;sensor_type;location;lat;lon;timestamp;pressure;altitude;pressure_sealevel;temperature;humidity
72892;BME280;61032;50.782;6.818;2024-03-17T00:00:54;101306.22;;;7.55;80.48
72892;BME280;61032;50.782;6.818;2024-03-17T00:01:55;101299.09;;;7.59;80.16
72892;BME280;61032;50.782;6.818;2024-03-17T00:02:55;101304.84;;;7.57;80.06
72892;BME280;61032;50.782;6.818;2024-03-17T00:03:55;101304.03;;;7.57;79.82
72892;BME280;61032;50.782;6.818;2024-03-17T00:04:56;101303.75;;;7.58;79.90
72892;BME280;61032;50.782;6.818;2024-03-17T00:05:58;101296.34;;;7.59;79.71
72892;BME280;61032;50.782;6.818;2024-03-17T00:06:58;101299.31;;;7.63;79.47
72892;BME280;61032;50.782;6.818;2024-03-17T00:07:59;101292.50;;;7.60;79.39
72892;BME280;61032;50.782;6.818;2024-03-17T00:08:59;101297.75;;;7.56;79.29
72892;BME280;61032;50.782;6.818;2024-03-17T00:10:06;101291.78;;;7.49;79.29
72892;BME280;61032;50.782;6.818;2024-03-17T00:11:10;101293.94;;;7.52;79.58
72892;BME280;61032;50.782;6.818;2024-03-17T00:12:11;101294.75;;;7.53;79.25
72892;BME280;61032;50.782;6.818;2024-03-17T00:13:12;101291.75;;;7.54;79.02
72892;BME280;61032;50.782;6.818;2024-03-17T00:14:12;101295.88;;;7.52;78.83
72892;BME280;61032;50.782;6.818;2024-03-17T00:15:12;101284.94;;;7.52;78.96
72892;BME280;61032;50.782;6.818;2024-03-17T00:16:14;101294.31;;;7.46;78.65
72892;BME280;61032;50.782;6.818;2024-03-17T00:17:18;101289.19;;;7.39;79.15
72892;BME280;61032;50.782;6.818;2024-03-17T00:18:20;101285.88;;;7.42;79.06
72892;BME280;61032;50.782;6.818;2024-03-17T00:19:23;101288.56;;;7.47;78.79
72892;BME280;61032;50.782;6.818;2024-03-17T00:20:23;101286.84;;;7.51;78.92
72892;BME280;61032;50.782;6.818;2024-03-17T00:21:25;101286.84;;;7.51;78.32
72892;BME280;61032;50.782;6.818;2024-03-17T00:22:26;101289.81;;;7.55;78.75
72892;BME280;61032;50.782;6.818;2024-03-17T00:23:26;101292.84;;;7.53;78.24
72892;BME280;61032;50.782;6.818;2024-03-17T00:24:28;101281.66;;;7.50;78.24
72892;BME280;61032;50.782;6.818;2024-03-17T00:25:35;101278.09;;;7.49;78.42
72892;BME280;61032;50.782;6.818;2024-03-17T00:26:35;101283.56;;;7.49;78.08
72892;BME280;61032;50.782;6.818;2024-03-17T00:27:36;101285.22;;;7.50;78.25
72892;BME280;61032;50.782;6.818;2024-03-17T00:28:41;101267.16;;;7.49;78.02
72892;BME280;61032;50.782;6.818;2024-03-17T00:29:41;101283.56;;;7.49;77.71
72892;BME280;61032;50.782;6.818;2024-03-17T00:30:42;101276.47;;;7.48;77.58
72892;BME280;61032;50.782;6.818;2024-03-17T00:31:42;101283.66;;;7.44;77.73
72892;BME280;61032;50.782;6.818;2024-03-17T00:32:43;101274.34;;;7.45;77.85
72892;BME280;61032;50.782;6.818;2024-03-17T00:33:43;101279.53;;;7.47;77.57
72892;BME280;61032;50.782;6.818;2024-03-17T00:34:44;101283.56;;;7.49;77.68
72892;BME280;61032;50.782;6.818;2024-03-17T00:35:45;101282.84;;;7.44;77.48
72892;BME280;61032;50.782;6.818;2024-03-17T00:36:45;101280.69;;;7.41;77.49
72892;BME280;61032;50.782;6.818;2024-03-17T00:37:47;101277.13;;;7.40;77.41
72892;BME280;61032;50.782;6.818;2024-03-17T00:38:47;101285.34;;;7.40;77.83
72892;BME280;61032;50.782;6.818;2024-03-17T00:39:49;101287.50;;;7.43;77.55
72892;BME280;61032;50.782;6.818;2024-03-17T00:40:50;101275.78;;;7.38;77.58
72892;BME280;61032;50.782;6.818;2024-03-17T00:41:50;101281.25;;;7.38;77.37
72892;BME280;61032;50.782;6.818;2024-03-17T00:42:51;101282.59;;;7.40;77.34
72892;BME280;61032;50.782;6.818;2024-03-17T00:43:52;101281.00;;;7.34;77.05
72892;BME280;61032;50.782;6.818;2024-03-17T00:44:52;101284.28;;;7.36;77.40
72892;BME280;61032;50.782;6.818;2024-03-17T00:45:53;101278.84;;;7.31;77.43
72892;BME280;61032;50.782;6.818;2024-03-17T00:46:53;101270.66;;;7.31;77.44
72892;BME280;61032;50.782;6.818;2024-03-17T00:47:54;101273.47;;;7.26;77.17
72892;BME280;61032;50.782;6.818;2024-03-17T00:48:55;101271.00;;;7.24;77.67
72892;BME280;61032;50.782;6.818;2024-03-17T00:49:56;101271.66;;;7.11;77.74
72892;BME280;61032;50.782;6.818;2024-03-17T00:50:57;101273.00;;;7.14;78.12
72892;BME280;61032;50.782;6.818;2024-03-17T00:51:58;101270.56;;;7.12;77.68
72892;BME280;61032;50.782;6.818;2024-03-17T00:52:58;101269.78;;;7.07;78.00
72892;BME280;61032;50.782;6.818;2024-03-17T00:53:59;101265.50;;;7.01;78.33
72892;BME280;61032;50.782;6.818;2024-03-17T00:55:01;101259.50;;;6.99;78.93
72892;BME280;61032;50.782;6.818;2024-03-17T00:56:01;101263.91;;;6.95;79.02
72892;BME280;61032;50.782;6.818;2024-03-17T00:57:02;101264.44;;;6.97;79.11
72892;BME280;61032;50.782;6.818;2024-03-17T00:58:02;101266.59;;;7.00;78.44
72892;BME280;61032;50.782;6.818;2024-03-17T00:59:03;101262.19;;;7.04;78.49
72892;BME280;61032;50.782;6.818;2024-03-17T01:00:04;101265.44;;;7.06;78.36
72892;BME280;61032;50.782;6.818;2024-03-17T01:01:06;101264.84;;;7.09;78.26
72892;BME280;61032;50.782;6.818;2024-03-17T01:02:07;101261.53;;;7.12;78.39
72892;BME280;61032;50.782;6.818;2024-03-17T01:03:07;101259.34;;;7.14;78.08
72892;BME280;61032;50.782;6.818;2024-03-17T01:04:07;101262.34;;;7.12;77.92
72892;BME280;61032;50.782;6.818;2024-03-17T01:05:08;101266.44;;;7.15;77.95
72892;BME280;61032;50.782;6.818;2024-03-17T01:06:09;101256.59;;;7.14;77.81
72892;BME280;61032;50.782;6.818;2024-03-17T01:07:10;101256.91;;;7.12;77.72
72892;BME280;61032;50.782;6.818;2024-03-17T01:08:11;101259.91;;;7.11;77.35
72892;BME280;61032;50.782;6.818;2024-03-17T01:09:11;101261.50;;;7.17;77.46
72892;BME280;61032;50.782;6.818;2024-03-17T01:10:11;101256.06;;;7.12;77.47
72892;BME280;61032;50.782;6.818;2024-03-17T01:11:15;101258.28;;;7.10;77.36
72892;BME280;61032;50.782;6.818;2024-03-17T01:12:18;101256.72;;;7.04;77.43
72892;BME280;61032;50.782;6.818;2024-03-17T01:13:19;101249.91;;;7.01;77.08
72892;BME280;61032;50.782;6.818;2024-03-17T01:14:20;101258.69;;;6.98;77.54
72892;BME280;61032;50.782;6.818;2024-03-17T01:15:20;101256.75;;;6.99;77.94
72892;BME280;61032;50.782;6.818;2024-03-17T01:16:21;101255.38;;;7.01;77.67
72892;BME280;61032;50.782;6.818;2024-03-17T01:17:21;101254.28;;;7.02;77.85
72892;BME280;61032;50.782;6.818;2024-03-17T01:18:22;101252.88;;;7.05;77.38
72892;BME280;61032;50.782;6.818;2024-03-17T01:19:23;101258.34;;;7.05;77.36
72892;BME280;61032;50.782;6.818;2024-03-17T01:20:24;101251.78;;;7.06;77.14
72892;BME280;61032;50.782;6.818;2024-03-17T01:21:24;101247.34;;;7.10;77.09
72892;BME280;61032;50.782;6.818;2024-03-17T01:22:25;101250.31;;;7.13;77.06
72892;BME280;61032;50.782;6.818;2024-03-17T01:23:25;101245.19;;;7.07;77.14
72892;BME280;61032;50.782;6.818;2024-03-17T01:24:25;101245.25;;;7.02;76.96
72892;BME280;61032;50.782;6.818;2024-03-17T01:25:33;101249.63;;;7.03;77.08
72892;BME280;61032;50.782;6.818;2024-03-17T01:26:36;101246.88;;;7.03;77.30
72892;BME280;61032;50.782;6.818;2024-03-17T01:27:36;101244.09;;;7.08;77.34
72892;BME280;61032;50.782;6.818;2024-03-17T01:28:37;101242.41;;;7.12;76.84
72892;BME280;61032;50.782;6.818;2024-03-17T01:29:37;101245.13;;;7.12;77.16
72892;BME280;61032;50.782;6.818;2024-03-17T01:30:37;101240.25;;;7.09;76.75
72892;BME280;61032;50.782;6.818;2024-03-17T01:31:39;101236.47;;;7.05;76.23
72892;BME280;61032;50.782;6.818;2024-03-17T01:32:39;101234.31;;;7.02;76.95
72892;BME280;61032;50.782;6.818;2024-03-17T01:33:40;101238.69;;;7.03;76.88
72892;BME280;61032;50.782;6.818;2024-03-17T01:34:40;101233.75;;;7.05;77.24
72892;BME280;61032;50.782;6.818;2024-03-17T01:35:41;101234.56;;;7.05;77.18
72892;BME280;61032;50.782;6.818;2024-03-17T01:36:41;101229.91;;;7.06;76.90
72892;BME280;61032;50.782;6.818;2024-03-17T01:37:42;101235.88;;;7.08;76.82
72892;BME280;61032;50.782;6.818;2024-03-17T01:38:42;101232.41;;;7.02;76.72
72892;BME280;61032;50.782;6.818;2024-03-17T01:39:43;101229.38;;;7.04;77.00
72892;BME280;61032;50.782;6.818;2024-03-17T01:40:44;101227.19;;;7.06;76.64
72892;BME280;61032;50.782;6.818;2024-03-17T01:41:44;101225.59;;;7.00;76.94
72892;BME280;61032;50.782;6.818;2024-03-17T01:42:44;101221.50;;;6.97;76.90
72892;BME280;61032;50.782;6.818;2024-03-17T01:43:45;101233.78;;;7.00;76.87
72892;BME280;61032;50.782;6.818;2024-03-17T01:44:45;101221.78;;;6.96;77.20
72892;BME280;61032;50.782;6.818;2024-03-17T01:45:46;101226.16;;;6.97;77.15
72892;BME280;61032;50.782;6.818;2024-03-17T01:46:47;101224.53;;;6.96;76.85
72892;BME280;61032;50.782;6.818;2024-03-17T01:47:47;101224.81;;;6.94;76.88
72892;BME280;61032;50.782;6.818;2024-03-17T01:48:48;101217.72;;;6.93;76.98
72892;BME280;61032;50.782;6.818;2024-03-17T01:49:49;101227.31;;;6.90;77.15
72892;BME280;61032;50.782;6.818;2024-03-17T01:50:52;101225.63;;;6.95;77.36
72892;BME280;61032;50.782;6.818;2024-03-17T01:51:53;101220.22;;;6.89;76.84
72892;BME280;61032;50.782;6.818;2024-03-17T01:52:56;101220.56;;;6.83;77.20
72892;BME280;61032;50.782;6.818;2024-03-17T01:53:59;101218.69;;;6.78;76.91
72892;BME280;61032;50.782;6.818;2024-03-17T01:55:01;101218.34;;;6.85;77.54
72892;BME280;61032;50.782;6.818;2024-03-17T01:56:03;101211.47;;;6.87;77.27
72892;BME280;61032;50.782;6.818;2024-03-17T01:57:04;101213.19;;;6.83;77.15
72892;BME280;61032;50.782;6.818;2024-03-17T01:58:05;101214.50;;;6.86;77.07
72892;BME280;61032;50.782;6.818;2024-03-17T01:59:12;101222.41;;;6.87;77.42
72892;BME280;61032;50.782;6.818;2024-03-17T02:00:14;101218.34;;;6.85;76.93
72892;BME280;61032;50.782;6.818;2024-03-17T02:01:15;101222.94;;;6.89;77.40
72892;BME280;61032;50.782;6.818;2024-03-17T02:02:16;101220.50;;;6.88;76.70
72892;BME280;61032;50.782;6.818;2024-03-17T02:03:16;101220.28;;;6.84;76.57
72892;BME280;61032;50.782;6.818;2024-03-17T02:04:17;101218.66;;;6.83;76.74
72892;BME280;61032;50.782;6.818;2024-03-17T02:05:18;101217.53;;;6.84;77.46
72892;BME280;61032;50.782;6.818;2024-03-17T02:06:18;101221.09;;;6.85;77.09
72892;BME280;61032;50.782;6.818;2024-03-17T02:07:18;101219.47;;;6.84;76.88
72892;BME280;61032;50.782;6.818;2024-03-17T02:08:19;101219.47;;;6.84;76.88
72892;BME280;61032;50.782;6.818;2024-03-17T02:09:22;101219.22;;;6.80;76.39
72892;BME280;61032;50.782;6.818;2024-03-17T02:10:22;101214.03;;;6.79;77.02
72892;BME280;61032;50.782;6.818;2024-03-17T02:11:32;101220.31;;;6.79;77.43
72892;BME280;61032;50.782;6.818;2024-03-17T02:12:33;101217.88;;;6.78;77.70
72892;BME280;61032;50.782;6.818;2024-03-17T02:13:33;101213.22;;;6.78;77.17
72892;BME280;61032;50.782;6.818;2024-03-17T02:14:34;101213.50;;;6.77;77.13
72892;BME280;61032;50.782;6.818;2024-03-17T02:15:34;101210.53;;;6.73;77.04
72892;BME280;61032;50.782;6.818;2024-03-17T02:16:35;101219.56;;;6.69;77.04
72892;BME280;61032;50.782;6.818;2024-03-17T02:17:35;101216.91;;;6.64;77.14
72892;BME280;61032;50.782;6.818;2024-03-17T02:18:36;101211.19;;;6.60;77.19
72892;BME280;61032;50.782;6.818;2024-03-17T02:19:36;101205.72;;;6.60;76.92
72892;BME280;61032;50.782;6.818;2024-03-17T02:20:36;101209.00;;;6.62;76.85
72892;BME280;61032;50.782;6.818;2024-03-17T02:21:55;101210.09;;;6.61;76.72
72892;BME280;61032;50.782;6.818;2024-03-17T02:22:56;101206.88;;;6.54;78.08
72892;BME280;61032;50.782;6.818;2024-03-17T02:23:56;101217.78;;;6.54;77.68
72892;BME280;61032;50.782;6.818;2024-03-17T02:24:57;101213.97;;;6.55;78.57
72892;BME280;61032;50.782;6.818;2024-03-17T02:25:57;101211.75;;;6.57;78.43
72892;BME280;61032;50.782;6.818;2024-03-17T02:26:57;101213.41;;;6.58;78.32
72892;BME280;61032;50.782;6.818;2024-03-17T02:27:58;101210.38;;;6.60;77.76
72892;BME280;61032;50.782;6.818;2024-03-17T02:28:59;101213.94;;;6.60;77.00
72892;BME280;61032;50.782;6.818;2024-03-17T02:29:59;101211.22;;;6.55;77.71
72892;BME280;61032;50.782;6.818;2024-03-17T02:30:59;101213.72;;;6.51;77.27
72892;BME280;61032;50.782;6.818;2024-03-17T02:32:00;101205.25;;;6.48;77.25
72892;BME280;61032;50.782;6.818;2024-03-17T02:33:04;101210.19;;;6.46;77.61
72892;BME280;61032;50.782;6.818;2024-03-17T02:34:04;101206.97;;;6.44;77.87
72892;BME280;61032;50.782;6.818;2024-03-17T02:35:05;101209.16;;;6.42;77.70
72892;BME280;61032;50.782;6.818;2024-03-17T02:36:06;101211.59;;;6.43;78.28
72892;BME280;61032;50.782;6.818;2024-03-17T02:37:12;101211.34;;;6.40;78.15
72892;BME280;61032;50.782;6.818;2024-03-17T02:38:15;101229.38;;;6.41;77.92
72892;BME280;61032;50.782;6.818;2024-03-17T02:39:36;101211.00;;;6.46;76.86
72892;BME280;61032;50.782;6.818;2024-03-17T02:40:36;101214.34;;;6.43;77.16
72892;BME280;61032;50.782;6.818;2024-03-17T02:41:37;101208.34;;;6.41;78.11
72892;BME280;61032;50.782;6.818;2024-03-17T02:42:37;101215.72;;;6.41;78.31
72892;BME280;61032;50.782;6.818;2024-03-17T02:43:45;101215.72;;;6.41;77.97
72892;BME280;61032;50.782;6.818;2024-03-17T02:44:46;101213.00;;;6.41;77.43
72892;BME280;61032;50.782;6.818;2024-03-17T02:45:46;101215.44;;;6.42;77.91
72892;BME280;61032;50.782;6.818;2024-03-17T02:46:47;101217.06;;;6.43;78.12
72892;BME280;61032;50.782;6.818;2024-03-17T02:47:48;101209.19;;;6.37;77.62
72892;BME280;61032;50.782;6.818;2024-03-17T02:48:52;101215.75;;;6.36;77.86
72892;BME280;61032;50.782;6.818;2024-03-17T02:49:52;101210.31;;;6.31;77.79
72892;BME280;61032;50.782;6.818;2024-03-17T02:50:53;101210.88;;;6.28;77.44
72892;BME280;61032;50.782;6.818;2024-03-17T02:51:54;101209.81;;;6.24;77.65
72892;BME280;61032;50.782;6.818;2024-03-17T02:52:54;101203.84;;;6.22;78.33
72892;BME280;61032;50.782;6.818;2024-03-17T02:53:55;101211.97;;;6.27;78.13
72892;BME280;61032;50.782;6.818;2024-03-17T02:54:55;101205.22;;;6.19;78.47
72892;BME280;61032;50.782;6.818;2024-03-17T02:55:56;101205.75;;;6.21;78.88
72892;BME280;61032;50.782;6.818;2024-03-17T02:56:57;101199.47;;;6.20;78.60
72892;BME280;61032;50.782;6.818;2024-03-17T02:57:57;101204.41;;;6.18;78.64
72892;BME280;61032;50.782;6.818;2024-03-17T02:58:57;101204.41;;;6.18;78.37
72892;BME280;61032;50.782;6.818;2024-03-17T02:59:58;101208.78;;;6.19;78.64
72892;BME280;61032;50.782;6.818;2024-03-17T03:00:59;101209.91;;;6.13;78.69
72892;BME280;61032;50.782;6.818;2024-03-17T03:02:00;101204.72;;;6.12;79.00
72892;BME280;61032;50.782;6.818;2024-03-17T03:03:00;101208.81;;;6.14;78.18
72892;BME280;61032;50.782;6.818;2024-03-17T03:04:00;101200.06;;;6.12;78.62
72892;BME280;61032;50.782;6.818;2024-03-17T03:05:01;101203.34;;;6.14;78.36
72892;BME280;61032;50.782;6.818;2024-03-17T03:06:02;101200.06;;;6.17;78.78
72892;BME280;61032;50.782;6.818;2024-03-17T03:07:04;101200.06;;;6.12;78.21
72892;BME280;61032;50.782;6.818;2024-03-17T03:08:05;101212.38;;;6.10;78.28
72892;BME280;61032;50.782;6.818;2024-03-17T03:09:06;101208.53;;;6.11;78.85
72892;BME280;61032;50.782;6.818;2024-03-17T03:10:12;101202.28;;;6.10;79.05
72892;BME280;61032;50.782;6.818;2024-03-17T03:11:13;101203.38;;;6.09;78.74
72892;BME280;61032;50.782;6.818;2024-03-17T03:12:13;101211.56;;;6.09;77.90
72892;BME280;61032;50.782;6.818;2024-03-17T03:13:14;101204.19;;;6.10;78.34
72892;BME280;61032;50.782;6.818;2024-03-17T03:14:14;101207.44;;;6.12;78.04
72892;BME280;61032;50.782;6.818;2024-03-17T03:15:14;101198.44;;;6.11;77.96
72892;BME280;61032;50.782;6.818;2024-03-17T03:16:15;101203.63;;;6.13;78.20
72892;BME280;61032;50.782;6.818;2024-03-17T03:17:16;101202.84;;;6.07;77.94
72892;BME280;61032;50.782;6.818;2024-03-17T03:18:16;101204.50;;;6.03;78.16
72892;BME280;61032;50.782;6.818;2024-03-17T03:19:16;101199.09;;;5.98;78.17
72892;BME280;61032;50.782;6.818;2024-03-17T03:20:17;101198.28;;;5.93;78.26
72892;BME280;61032;50.782;6.818;2024-03-17T03:21:18;101195.31;;;5.89;79.15
72892;BME280;61032;50.782;6.818;2024-03-17T03:22:18;101198.56;;;5.91;78.89
72892;BME280;61032;50.782;6.818;2024-03-17T03:23:21;101190.38;;;5.96;79.10
72892;BME280;61032;50.782;6.818;2024-03-17T03:24:22;101204.03;;;5.91;78.63
72892;BME280;61032;50.782;6.818;2024-03-17T03:25:22;101196.13;;;5.90;78.58
72892;BME280;61032;50.782;6.818;2024-03-17T03:26:23;101196.38;;;5.88;78.95
72892;BME280;61032;50.782;6.818;2024-03-17T03:27:26;101197.47;;;5.87;78.45
72892;BME280;61032;50.782;6.818;2024-03-17T03:28:26;101204.06;;;5.81;79.13
72892;BME280;61032;50.782;6.818;2024-03-17T03:29:27;101205.97;;;5.80;78.93
72892;BME280;61032;50.782;6.818;2024-03-17T03:30:27;101206.47;;;5.82;78.86
72892;BME280;61032;50.782;6.818;2024-03-17T03:31:28;101194.00;;;5.76;79.09
72892;BME280;61032;50.782;6.818;2024-03-17T03:32:28;101202.19;;;5.76;79.77
72892;BME280;61032;50.782;6.818;2024-03-17T03:33:28;101202.44;;;5.80;79.57
72892;BME280;61032;50.782;6.818;2024-03-17T03:34:29;101203.47;;;5.84;78.88
72892;BME280;61032;50.782;6.818;2024-03-17T03:35:29;101204.56;;;5.83;78.91
72892;BME280;61032;50.782;6.818;2024-03-17T03:36:30;101201.09;;;5.72;79.62
72892;BME280;61032;50.782;6.818;2024-03-17T03:37:31;101204.63;;;5.73;79.81
72892;BME280;61032;50.782;6.818;2024-03-17T03:38:32;101211.44;;;5.75;79.11
72892;BME280;61032;50.782;6.818;2024-03-17T03:39:33;101211.94;;;5.82;79.52
72892;BME280;61032;50.782;6.818;2024-03-17T03:40:34;101208.38;;;5.87;79.54
72892;BME280;61032;50.782;6.818;2024-03-17T03:41:34;101212.19;;;5.86;78.94
72892;BME280;61032;50.782;6.818;2024-03-17T03:42:35;101205.09;;;5.85;78.68
72892;BME280;61032;50.782;6.818;2024-03-17T03:43:36;101209.47;;;5.86;78.56
72892;BME280;61032;50.782;6.818;2024-03-17T03:44:38;101213.59;;;5.89;79.05
72892;BME280;61032;50.782;6.818;2024-03-17T03:45:39;101201.28;;;5.86;78.92
72892;BME280;61032;50.782;6.818;2024-03-17T03:46:40;101212.50;;;5.90;78.54
72892;BME280;61032;50.782;6.818;2024-03-17T03:47:41;101202.66;;;5.94;78.69
72892;BME280;61032;50.782;6.818;2024-03-17T03:48:42;101195.56;;;5.93;78.36
72892;BME280;61032;50.782;6.818;2024-03-17T03:49:43;101200.19;;;5.92;78.68
72892;BME280;61032;50.782;6.818;2024-03-17T03:50:45;101191.47;;;5.90;78.59
72892;BME280;61032;50.782;6.818;2024-03-17T03:51:45;101190.66;;;5.84;78.32
72892;BME280;61032;50.782;6.818;2024-03-17T03:52:46;101197.75;;;5.85;79.13
72892;BME280;61032;50.782;6.818;2024-03-17T03:53:46;101189.28;;;5.87;78.33
72892;BME280;61032;50.782;6.818;2024-03-17T03:54:47;101201.28;;;5.86;78.73
72892;BME280;61032;50.782;6.818;2024-03-17T03:55:47;101194.22;;;5.90;78.31
72892;BME280;61032;50.782;6.818;2024-03-17T03:56:49;101195.84;;;5.91;78.62
72892;BME280;61032;50.782;6.818;2024-03-17T03:57:49;101193.13;;;5.91;78.26
72892;BME280;61032;50.782;6.818;2024-03-17T03:58:52;101197.72;;;5.96;78.79
72892;BME280;61032;50.782;6.818;2024-03-17T03:59:52;101188.72;;;5.95;78.41
72892;BME280;61032;50.782;6.818;2024-03-17T04:00:53;101191.19;;;5.92;77.95
72892;BME280;61032;50.782;6.818;2024-03-17T04:01:53;101189.28;;;5.92;78.09
72892;BME280;61032;50.782;6.818;2024-03-17T04:02:54;101183.28;;;5.90;78.19
72892;BME280;61032;50.782;6.818;2024-03-17T04:03:54;101193.63;;;5.88;78.73
72892;BME280;61032;50.782;6.818;2024-03-17T04:04:55;101194.50;;;5.89;78.17
72892;BME280;61032;50.782;6.818;2024-03-17T04:06:06;101197.47;;;5.87;78.47
72892;BME280;61032;50.782;6.818;2024-03-17T04:07:07;101191.47;;;5.90;79.11
72892;BME280;61032;50.782;6.818;2024-03-17T04:08:08;101195.25;;;5.99;78.67
72892;BME280;61032;50.782;6.818;2024-03-17T04:09:09;101187.59;;;6.01;78.55
72892;BME280;61032;50.782;6.818;2024-03-17T04:10:09;101193.53;;;6.08;78.26
72892;BME280;61032;50.782;6.818;2024-03-17T04:11:10;101192.75;;;6.03;77.60
72892;BME280;61032;50.782;6.818;2024-03-17T04:12:11;101188.13;;;6.03;78.29
72892;BME280;61032;50.782;6.818;2024-03-17T04:13:12;101184.81;;;6.06;77.89
72892;BME280;61032;50.782;6.818;2024-03-17T04:14:14;101184.25;;;6.09;78.02
72892;BME280;61032;50.782;6.818;2024-03-17T04:15:14;101177.69;;;6.10;77.91
72892;BME280;61032;50.782;6.818;2024-03-17T04:16:15;101175.78;;;6.11;77.93
72892;BME280;61032;50.782;6.818;2024-03-17T04:17:15;101181.25;;;6.11;77.50
72892;BME280;61032;50.782;6.818;2024-03-17T04:18:16;101186.16;;;6.14;77.81
72892;BME280;61032;50.782;6.818;2024-03-17T04:19:17;101179.91;;;6.08;76.91
72892;BME280;61032;50.782;6.818;2024-03-17T04:20:18;101184.25;;;6.09;77.06
72892;BME280;61032;50.782;6.818;2024-03-17T04:21:18;101178.25;;;6.12;78.33
72892;BME280;61032;50.782;6.818;2024-03-17T04:22:21;101177.69;;;6.15;77.83
72892;BME280;61032;50.782;6.818;2024-03-17T04:23:22;101173.84;;;6.16;76.96
72892;BME280;61032;50.782;6.818;2024-03-17T04:24:23;101173.34;;;6.09;77.15
72892;BME280;61032;50.782;6.818;2024-03-17T04:25:23;101165.97;;;6.10;77.52
72892;BME280;61032;50.782;6.818;2024-03-17T04:26:23;101171.72;;;6.08;77.53
72892;BME280;61032;50.782;6.818;2024-03-17T04:27:24;101174.44;;;6.08;77.18
72892;BME280;61032;50.782;6.818;2024-03-17T04:28:24;101169.81;;;6.04;76.86
72892;BME280;61032;50.782;6.818;2024-03-17T04:29:25;101182.63;;;6.08;78.30
72892;BME280;61032;50.782;6.818;2024-03-17T04:30:25;101164.06;;;6.10;77.37
72892;BME280;61032;50.782;6.818;2024-03-17T04:31:26;101178.59;;;6.01;77.21
72892;BME280;61032;50.782;6.818;2024-03-17T04:32:26;101172.09;;;5.92;77.92
72892;BME280;61032;50.782;6.818;2024-03-17T04:33:32;101172.34;;;5.95;77.57
72892;BME280;61032;50.782;6.818;2024-03-17T04:34:32;101165.25;;;5.99;78.59
72892;BME280;61032;50.782;6.818;2024-03-17T04:35:37;101166.81;;;6.05;78.17
72892;BME280;61032;50.782;6.818;2024-03-17T04:36:37;101168.19;;;6.03;77.84
72892;BME280;61032;50.782;6.818;2024-03-17T04:37:38;101160.53;;;6.05;78.24
72892;BME280;61032;50.782;6.818;2024-03-17T04:38:39;101161.94;;;6.02;77.51
72892;BME280;61032;50.782;6.818;2024-03-17T04:39:40;101156.25;;;5.99;78.07
72892;BME280;61032;50.782;6.818;2024-03-17T04:40:41;101157.91;;;5.95;78.41
72892;BME280;61032;50.782;6.818;2024-03-17T04:41:41;101153.78;;;5.97;78.46
72892;BME280;61032;50.782;6.818;2024-03-17T04:42:43;101159.81;;;5.94;78.13
72892;BME280;61032;50.782;6.818;2024-03-17T04:43:44;101161.97;;;5.97;78.71
72892;BME280;61032;50.782;6.818;2024-03-17T04:44:45;101144.22;;;6.00;78.02
72892;BME280;61032;50.782;6.818;2024-03-17T04:45:45;101148.31;;;6.02;78.86
72892;BME280;61032;50.782;6.818;2024-03-17T04:46:46;101148.81;;;6.04;78.63
72892;BME280;61032;50.782;6.818;2024-03-17T04:47:47;101150.44;;;6.05;78.10
72892;BME280;61032;50.782;6.818;2024-03-17T04:48:47;101149.34;;;6.06;78.54
72892;BME280;61032;50.782;6.818;2024-03-17T04:49:48;101154.81;;;6.06;78.11
72892;BME280;61032;50.782;6.818;2024-03-17T04:50:48;101146.34;;;6.03;78.02
72892;BME280;61032;50.782;6.818;2024-03-17T04:51:48;101151.81;;;6.03;77.49
72892;BME280;61032;50.782;6.818;2024-03-17T04:52:49;101148.53;;;6.06;77.40
72892;BME280;61032;50.782;6.818;2024-03-17T04:53:49;101149.88;;;6.08;77.58
72892;BME280;61032;50.782;6.818;2024-03-17T04:54:49;101151.78;;;6.08;77.89
72892;BME280;61032;50.782;6.818;2024-03-17T04:56:04;101146.91;;;6.05;77.97
72892;BME280;61032;50.782;6.818;2024-03-17T04:57:05;101142.63;;;5.94;78.28
72892;BME280;61032;50.782;6.818;2024-03-17T04:58:05;101153.78;;;5.97;78.77
72892;BME280;61032;50.782;6.818;2024-03-17T04:59:05;101148.06;;;5.94;79.04
72892;BME280;61032;50.782;6.818;2024-03-17T05:00:06;101144.50;;;5.98;78.57
72892;BME280;61032;50.782;6.818;2024-03-17T05:01:07;101149.44;;;5.91;78.55
72892;BME280;61032;50.782;6.818;2024-03-17T05:02:08;101134.16;;;5.95;78.53
72892;BME280;61032;50.782;6.818;2024-03-17T05:03:08;101140.44;;;5.96;77.72
72892;BME280;61032;50.782;6.818;2024-03-17T05:04:09;101149.19;;;5.93;77.82
72892;BME280;61032;50.782;6.818;2024-03-17T05:05:09;101144.53;;;5.93;78.83
72892;BME280;61032;50.782;6.818;2024-03-17T05:06:10;101141.25;;;5.96;78.24
72892;BME280;61032;50.782;6.818;2024-03-17T05:07:11;101142.34;;;5.95;78.29
72892;BME280;61032;50.782;6.818;2024-03-17T05:08:11;101139.59;;;5.95;78.51
72892;BME280;61032;50.782;6.818;2024-03-17T05:09:15;101136.56;;;6.02;78.64
72892;BME280;61032;50.782;6.818;2024-03-17T05:10:15;101135.44;;;6.03;78.14
72892;BME280;61032;50.782;6.818;2024-03-17T05:11:15;101133.03;;;6.01;78.37
72892;BME280;61032;50.782;6.818;2024-03-17T05:12:18;101131.63;;;6.04;77.90
72892;BME280;61032;50.782;6.818;2024-03-17T05:13:19;101133.59;;;5.98;78.36
72892;BME280;61032;50.782;6.818;2024-03-17T05:14:19;101138.50;;;5.96;78.92
72892;BME280;61032;50.782;6.818;2024-03-17T05:15:20;101140.44;;;5.96;77.99
72892;BME280;61032;50.782;6.818;2024-03-17T05:16:21;101141.81;;;5.93;78.79
72892;BME280;61032;50.782;6.818;2024-03-17T05:17:22;101147.25;;;5.93;78.01
72892;BME280;61032;50.782;6.818;2024-03-17T05:18:23;101138.53;;;5.91;78.43
72892;BME280;61032;50.782;6.818;2024-03-17T05:19:26;101146.41;;;5.98;77.60
72892;BME280;61032;50.782;6.818;2024-03-17T05:20:26;101147.50;;;5.97;77.76
72892;BME280;61032;50.782;6.818;2024-03-17T05:21:27;101143.16;;;5.96;77.91
72892;BME280;61032;50.782;6.818;2024-03-17T05:22:30;101142.88;;;5.97;77.99
72892;BME280;61032;50.782;6.818;2024-03-17T05:23:32;101136.88;;;5.95;77.81
72892;BME280;61032;50.782;6.818;2024-03-17T05:24:32;101136.63;;;5.92;77.86